Time;durP1;ratioP1;P1;durP2;ratioP2;P2;SDS_P1;SDS_P2;PMS_P1;PMS_P2;Temp;Humidity;BMP_temperature;BMP_pressure;BME280_temperature;BME280_humidity;BME280_pressure;Samples;Min_cycle;Max_cycle;Signal;HPM_P1;HPM_P2
2022/03/24 00:06:49;;;;;;;15.23;10.30;;;8.50;46.70;;;;;;21093545;28;20236;-69
2022/03/24 00:16:51;;;;;;;13.90;9.60;;;8.30;47.30;;;;;;21095482;28;20233;-68
2022/03/24 00:26:53;;;;;;;15.30;9.20;;;8.30;47.80;;;;;;21092035;28;20228;-69
2022/03/24 00:36:55;;;;;;;15.20;10.03;;;8.10;48.10;;;;;;21091667;28;20215;-71
2022/03/24 00:46:56;;;;;;;22.87;9.47;;;7.90;48.90;;;;;;21090338;28;20235;-73
2022/03/24 00:56:58;;;;;;;26.87;9.43;;;7.60;48.20;;;;;;21089691;28;20663;-70
2022/03/24 01:07:00;;;;;;;19.60;9.20;;;7.50;48.70;;;;;;21088632;28;20768;-70
2022/03/24 01:17:04;;;;;;;18.83;8.87;;;7.40;49.30;;;;;;21084259;28;20633;-71
2022/03/24 01:27:07;;;;;;;18.93;9.03;;;7.30;48.90;;;;;;21000507;28;20757;-72
2022/03/24 01:37:08;;;;;;;14.97;8.57;;;7.30;49.30;;;;;;21004353;28;20643;-72
2022/03/24 01:47:10;;;;;;;21.40;8.97;;;7.20;49.00;;;;;;21007336;28;20720;-73
2022/03/24 01:57:14;;;;;;;13.90;8.73;;;7.10;49.20;;;;;;21003890;28;20211;-68
2022/03/24 02:07:15;;;;;;;19.23;8.80;;;7.10;49.80;;;;;;20999903;28;20285;-69
2022/03/24 02:17:20;;;;;;;14.53;8.87;;;6.90;49.70;;;;;;20998003;28;20305;-69
2022/03/24 02:27:24;;;;;;;18.50;8.80;;;6.70;50.00;;;;;;20998762;28;20239;-70
2022/03/24 02:37:28;;;;;;;20.80;8.73;;;6.60;50.40;;;;;;20997926;28;20555;-67
2022/03/24 02:47:30;;;;;;;17.57;8.30;;;6.60;50.70;;;;;;20996896;28;20239;-68
2022/03/24 02:57:33;;;;;;;16.23;8.67;;;6.40;51.00;;;;;;20996243;28;20268;-69
2022/03/24 03:07:35;;;;;;;15.60;8.73;;;6.40;51.60;;;;;;20996394;28;20253;-70
2022/03/24 03:17:37;;;;;;;12.47;8.10;;;6.40;51.70;;;;;;20994767;28;20281;-69
2022/03/24 03:27:39;;;;;;;15.90;9.40;;;6.40;51.40;;;;;;20992358;28;20211;-69
2022/03/24 03:37:42;;;;;;;18.83;9.23;;;6.40;51.50;;;;;;20976744;28;20232;-70
2022/03/24 03:47:43;;;;;;;15.13;9.40;;;6.40;52.20;;;;;;20994575;28;20214;-71
2022/03/24 03:57:45;;;;;;;15.20;9.03;;;6.00;52.30;;;;;;20993670;28;20203;-68
2022/03/24 04:07:47;;;;;;;16.07;9.40;;;6.00;52.80;;;;;;20993010;28;20256;-69
2022/03/24 04:17:50;;;;;;;14.43;9.40;;;6.00;52.90;;;;;;20992819;28;20235;-69
2022/03/24 04:27:52;;;;;;;17.23;9.60;;;5.70;53.00;;;;;;20974848;28;20214;-68
2022/03/24 04:37:54;;;;;;;16.97;9.47;;;5.50;53.90;;;;;;20992153;28;20746;-68
2022/03/24 04:47:56;;;;;;;17.07;8.70;;;5.50;54.30;;;;;;21004395;28;20280;-69
2022/03/24 04:57:58;;;;;;;13.67;8.83;;;5.40;54.00;;;;;;21005647;28;20611;-67
2022/03/24 05:08:00;;;;;;;13.43;9.17;;;5.50;54.20;;;;;;21005362;28;20215;-70
2022/03/24 05:18:01;;;;;;;15.73;9.27;;;5.50;54.60;;;;;;20986690;28;20235;-70
2022/03/24 05:28:05;;;;;;;16.43;9.00;;;5.60;54.10;;;;;;21002805;28;20684;-69
2022/03/24 05:38:07;;;;;;;21.03;9.90;;;5.50;54.50;;;;;;21002570;28;20272;-70
2022/03/24 05:48:09;;;;;;;20.40;9.77;;;5.50;55.00;;;;;;21002329;28;20203;-70
2022/03/24 05:58:12;;;;;;;20.23;10.10;;;5.50;55.10;;;;;;21000247;28;20267;-71
2022/03/24 06:08:14;;;;;;;18.77;10.50;;;5.60;55.20;;;;;;20999799;28;20207;-69
2022/03/24 06:18:17;;;;;;;26.50;10.23;;;5.70;55.50;;;;;;21006854;28;20630;-70
2022/03/24 06:28:24;;;;;;;25.50;11.50;;;5.90;55.50;;;;;;20998598;28;20199;-69
2022/03/24 06:38:25;;;;;;;23.23;12.10;;;6.00;55.80;;;;;;20996387;28;20238;-70
2022/03/24 06:48:27;;;;;;;30.50;14.23;;;6.00;56.30;;;;;;20991906;28;20434;-69
2022/03/24 06:58:29;;;;;;;30.63;12.43;;;6.80;57.10;;;;;;20994675;28;20280;-71
2022/03/24 07:08:31;;;;;;;46.80;16.50;;;6.80;56.10;;;;;;20978671;28;20717;-70
2022/03/24 07:18:32;;;;;;;18.47;11.53;;;6.90;56.60;;;;;;20994474;28;20237;-70
2022/03/24 07:28:34;;;;;;;27.93;11.60;;;7.20;55.50;;;;;;20990176;28;20203;-70
2022/03/24 07:38:36;;;;;;;23.57;11.90;;;7.60;55.00;;;;;;20992992;28;20708;-71
2022/03/24 07:48:38;;;;;;;24.47;11.90;;;7.90;55.00;;;;;;20992714;28;20205;-70
2022/03/24 07:58:40;;;;;;;40.43;15.80;;;8.10;54.90;;;;;;20992024;28;20534;-70
2022/03/24 08:08:42;;;;;;;28.10;13.67;;;8.40;54.70;;;;;;20991375;28;20350;-69
2022/03/24 08:18:43;;;;;;;30.67;14.23;;;8.50;55.70;;;;;;20980116;28;20713;-71
2022/03/24 08:28:45;;;;;;;45.03;13.67;;;9.00;54.20;;;;;;21006548;28;20537;-70
2022/03/24 08:38:47;;;;;;;35.40;13.30;;;9.50;53.70;;;;;;21006184;28;20567;-72
2022/03/24 08:48:48;;;;;;;21.27;12.50;;;9.60;54.00;;;;;;21006589;28;20207;-70
2022/03/24 08:58:50;;;;;;;26.20;13.97;;;9.90;52.70;;;;;;21006336;28;20228;-71
2022/03/24 09:08:52;;;;;;;23.70;15.30;;;10.50;49.60;;;;;;21006383;28;20273;-70
2022/03/24 09:18:54;;;;;;;36.63;17.10;;;10.70;49.60;;;;;;21006192;28;20317;-69
2022/03/24 09:28:58;;;;;;;30.13;17.47;;;11.00;48.90;;;;;;21077436;28;20215;-72
2022/03/24 09:39:00;;;;;;;31.80;17.40;;;11.30;48.50;;;;;;21087427;28;20697;-70
2022/03/24 09:49:02;;;;;;;26.83;17.30;;;11.70;48.50;;;;;;21086930;28;20228;-70
2022/03/24 09:59:04;;;;;;;36.33;19.07;;;12.00;48.30;;;;;;21085914;28;20242;-70
2022/03/24 10:09:08;;;;;;;37.23;19.80;;;12.30;47.90;;;;;;21084595;28;20229;-69
2022/03/24 10:19:15;;;;;;;34.13;20.63;;;12.60;47.60;;;;;;21089243;28;20246;-70
2022/03/24 10:29:18;;;;;;;37.30;22.03;;;13.00;47.30;;;;;;21102446;28;20206;-70
2022/03/24 10:39:24;;;;;;;34.33;21.67;;;13.40;45.70;;;;;;21083012;28;20234;-68
2022/03/24 10:49:26;;;;;;;38.57;22.23;;;13.60;46.20;;;;;;21064378;28;20206;-69
2022/03/24 10:59:34;;;;;;;38.10;22.90;;;13.80;45.50;;;;;;21080805;28;20268;-73
2022/03/24 11:09:36;;;;;;;35.50;22.13;;;14.10;45.00;;;;;;21082101;28;20210;-70
2022/03/24 11:19:39;;;;;;;30.97;20.40;;;14.60;43.40;;;;;;21078984;28;20235;-70
2022/03/24 11:29:41;;;;;;;31.73;20.60;;;14.70;43.60;;;;;;21000370;28;20215;-69
2022/03/24 11:40:06;;;;;;;38.30;22.03;;;15.00;42.70;;;;;;20994030;28;20569;-69
2022/03/24 11:50:10;;;;;;;31.47;19.53;;;15.20;41.70;;;;;;20997197;28;20214;-69
2022/03/24 12:00:14;;;;;;;33.40;19.23;;;15.50;41.40;;;;;;21010164;28;20245;-70
2022/03/24 12:10:30;;;;;;;36.23;19.83;;;15.80;40.80;;;;;;21010806;28;20688;-69
2022/03/24 12:20:43;;;;;;;28.60;19.73;;;16.20;39.20;;;;;;21008392;28;20301;-69
2022/03/24 12:30:50;;;;;;;24.20;17.13;;;16.50;38.00;;;;;;21007808;28;20585;-69
2022/03/24 12:41:04;;;;;;;24.10;15.40;;;16.90;36.50;;;;;;21007344;28;20236;-69
2022/03/24 12:51:25;;;;;;;26.83;16.93;;;17.20;35.50;;;;;;21007446;28;20240;-71
2022/03/24 13:01:27;;;;;;;30.53;19.30;;;17.60;33.20;;;;;;21006556;28;20255;-70
2022/03/24 13:11:58;;;;;;;26.50;17.33;;;17.90;33.50;;;;;;21006217;28;20237;-72
2022/03/24 13:22:17;;;;;;;18.23;13.03;;;18.10;32.90;;;;;;21005766;28;20237;-70
2022/03/24 13:32:23;;;;;;;18.20;12.63;;;18.40;32.20;;;;;;21023473;28;20688;-70
2022/03/24 13:42:26;;;;;;;18.03;12.50;;;18.60;30.70;;;;;;21022961;28;20302;-70
2022/03/24 13:52:31;;;;;;;20.93;12.47;;;18.80;29.70;;;;;;21025716;28;20211;-70
2022/03/24 14:02:34;;;;;;;18.90;13.43;;;19.00;29.20;;;;;;21010981;28;20235;-69
2022/03/24 14:12:51;;;;;;;16.50;11.67;;;19.20;28.40;;;;;;21008371;28;20207;-72
2022/03/24 14:22:53;;;;;;;19.73;12.57;;;19.60;27.90;;;;;;20998043;28;20719;-70
2022/03/24 14:32:55;;;;;;;19.83;13.83;;;20.90;27.50;;;;;;20998867;28;20276;-70
2022/03/24 14:43:04;;;;;;;17.35;12.35;;;23.90;26.60;;;;;;21002496;28;20767;-71
2022/03/24 14:53:09;;;;;;;21.10;12.80;;;26.40;25.80;;;;;;21002928;28;20210;-68
2022/03/24 15:03:11;;;;;;;16.70;12.70;;;25.60;25.10;;;;;;20996493;28;20235;-70
2022/03/24 15:13:13;;;;;;;21.38;16.00;;;26.40;24.50;;;;;;20998504;28;20207;-71
2022/03/24 15:23:15;;;;;;;26.35;12.80;;;27.30;23.90;;;;;;21015292;28;20242;-70
2022/03/24 15:33:17;;;;;;;17.42;13.40;;;27.60;23.70;;;;;;20995249;28;20207;-70
2022/03/24 15:43:23;;;;;;;16.83;13.80;;;25.70;23.60;;;;;;20996867;28;20257;-70
2022/03/24 15:53:25;;;;;;;16.67;13.17;;;25.30;24.40;;;;;;21002962;28;20210;-73
2022/03/24 16:03:27;;;;;;;20.27;14.70;;;24.70;24.80;;;;;;21003272;28;20239;-70
2022/03/24 16:13:29;;;;;;;24.30;13.87;;;23.00;27.20;;;;;;21000321;28;20203;-68
2022/03/24 16:23:31;;;;;;;23.03;14.87;;;22.00;28.50;;;;;;20995148;28;20255;-66
2022/03/24 16:33:33;;;;;;;19.40;13.80;;;21.30;27.40;;;;;;20995180;28;20226;-68
2022/03/24 16:43:35;;;;;;;21.80;13.83;;;20.70;27.30;;;;;;21004320;28;20288;-68
2022/03/24 16:53:42;;;;;;;18.67;14.00;;;20.20;27.40;;;;;;21007107;28;20204;-72
2022/03/24 17:03:45;;;;;;;19.13;13.70;;;19.50;27.70;;;;;;21006641;28;20705;-70
2022/03/24 17:13:47;;;;;;;27.53;14.80;;;19.50;28.20;;;;;;21003466;28;20214;-73
2022/03/24 17:23:50;;;;;;;23.67;14.97;;;19.00;29.00;;;;;;20985277;28;20247;-68
2022/03/24 17:33:52;;;;;;;20.20;13.53;;;18.60;29.80;;;;;;21062254;28;20664;-67
2022/03/24 17:43:54;;;;;;;23.57;14.53;;;18.20;31.10;;;;;;21086623;28;20274;-67
2022/03/24 17:53:56;;;;;;;24.03;15.87;;;17.70;31.20;;;;;;21085506;28;20206;-70
2022/03/24 18:03:57;;;;;;;26.43;16.40;;;17.40;31.80;;;;;;21084854;28;20235;-69
2022/03/24 18:13:59;;;;;;;25.47;14.97;;;17.00;32.40;;;;;;21084028;28;20253;-70
2022/03/24 18:24:01;;;;;;;27.43;15.53;;;16.60;33.20;;;;;;21085120;28;20235;-73
2022/03/24 18:34:03;;;;;;;28.57;14.13;;;16.30;34.70;;;;;;21083252;28;20209;-71
2022/03/24 18:44:08;;;;;;;24.80;13.93;;;15.80;35.80;;;;;;21081284;28;20311;-70
2022/03/24 18:54:10;;;;;;;24.90;14.70;;;15.30;35.20;;;;;;21078806;28;20250;-68
2022/03/24 19:04:12;;;;;;;29.83;16.70;;;15.30;35.80;;;;;;21058789;28;20239;-69
2022/03/24 19:14:16;;;;;;;29.30;16.37;;;15.10;36.50;;;;;;21049431;28;20198;-71
2022/03/24 19:24:19;;;;;;;35.93;19.10;;;14.70;37.40;;;;;;21068622;28;20289;-68
2022/03/24 19:34:21;;;;;;;34.20;17.83;;;14.60;38.50;;;;;;21066013;28;20649;-70
2022/03/24 19:44:24;;;;;;;34.83;19.07;;;14.30;39.70;;;;;;20991277;28;20234;-70
2022/03/24 19:54:26;;;;;;;36.83;17.80;;;14.00;40.40;;;;;;20991188;28;20210;-71
2022/03/24 20:04:29;;;;;;;29.07;16.73;;;13.70;41.60;;;;;;20991267;28;20238;-66
2022/03/24 20:14:31;;;;;;;25.40;16.63;;;13.50;41.70;;;;;;21058081;28;20212;-66
2022/03/24 20:24:34;;;;;;;29.43;16.73;;;13.00;41.40;;;;;;21094651;28;20261;-68
2022/03/24 20:34:37;;;;;;;28.33;16.40;;;12.90;42.10;;;;;;21090084;28;20607;-67
2022/03/24 20:44:39;;;;;;;36.87;16.77;;;12.70;42.80;;;;;;21089212;28;20300;-72
2022/03/24 20:54:42;;;;;;;45.97;17.50;;;12.50;43.30;;;;;;21087935;28;20210;-67
2022/03/24 21:04:43;;;;;;;49.17;17.87;;;12.30;44.20;;;;;;21068653;28;20237;-66
2022/03/24 21:14:46;;;;;;;27.43;16.40;;;12.10;44.00;;;;;;21025886;28;20200;-65
2022/03/24 21:24:47;;;;;;;32.97;17.53;;;11.90;43.80;;;;;;21000440;28;20241;-68
2022/03/24 21:34:49;;;;;;;34.83;19.23;;;11.90;44.70;;;;;;21079390;28;20345;-69
2022/03/24 21:44:51;;;;;;;34.93;18.20;;;11.50;45.10;;;;;;21084403;28;20230;-68
2022/03/24 21:54:52;;;;;;;38.80;18.33;;;11.40;45.30;;;;;;21083934;28;20207;-66
2022/03/24 22:04:54;;;;;;;31.48;19.60;;;11.40;46.00;;;;;;21081021;28;20492;-68
2022/03/24 22:14:56;;;;;;;31.70;18.47;;;11.00;46.50;;;;;;21079217;28;20643;-70
2022/03/24 22:24:58;;;;;;;38.30;18.50;;;10.90;47.00;;;;;;21062600;28;20712;-71
2022/03/24 22:35:00;;;;;;;31.70;18.23;;;10.60;47.20;;;;;;21078795;28;20218;-66
2022/03/24 22:45:02;;;;;;;39.70;18.73;;;10.60;47.70;;;;;;21079226;28;20322;-68
2022/03/24 22:55:05;;;;;;;35.73;19.10;;;10.30;48.00;;;;;;21078252;28;20198;-66
2022/03/24 23:05:08;;;;;;;31.80;18.10;;;10.20;48.40;;;;;;21077660;28;20327;-66
2022/03/24 23:15:11;;;;;;;27.40;17.73;;;10.10;49.20;;;;;;21070684;28;20600;-67
2022/03/24 23:25:14;;;;;;;37.03;18.57;;;10.10;49.40;;;;;;21066754;28;20245;-71
2022/03/24 23:35:16;;;;;;;31.47;18.07;;;9.90;50.10;;;;;;21075847;28;20692;-66
2022/03/24 23:45:19;;;;;;;33.33;17.30;;;9.80;51.20;;;;;;21076903;28;20237;-68
2022/03/24 23:55:21;;;;;;;27.13;18.00;;;9.70;50.70;;;;;;21092538;28;20209;-67
